Austin, Texas
Traffic Map
Current Weather Conditions
Austin, Texas
Overcast
Overcast
24°
Feels Like: 24°
Wind Chill: 24° Ceiling: 5000
Heat Index: 24° Visibility: 10mi
Dew Point: 18° Wind: 5mph
Humidity: 69% Direction: 360° (N)
Pressure: 30.01in Gusts: 0mph
Raw Report DataKATT 010851Z AUTO 36004KT 10SM BKN050 OVC065 24/18 A3001 RMK AO2 SLP146 T02440183 55003
Traffic Incident Summary
Active as of:
Severity:
Category:
InformationThere was an issue retrieving the traffic information for this location. Please try a different location or try again shortly.
Advertisements
Track Severe Weather on mobile